sensor_id;sensor_type;location;lat;lon;timestamp;P1;durP1;ratioP1;P2;durP2;ratioP2
4963;SDS011;2497;47.410;9.740;2023-04-06T00:01:33;7.20;;;3.70;;
4963;SDS011;2497;47.410;9.740;2023-04-06T00:04:01;12.00;;;4.10;;
4963;SDS011;2497;47.410;9.740;2023-04-06T00:06:28;9.93;;;3.77;;
4963;SDS011;2497;47.410;9.740;2023-04-06T00:08:55;10.13;;;4.27;;
4963;SDS011;2497;47.410;9.740;2023-04-06T00:11:23;6.30;;;3.60;;
4963;SDS011;2497;47.410;9.740;2023-04-06T00:13:50;7.10;;;4.23;;
4963;SDS011;2497;47.410;9.740;2023-04-06T00:16:19;14.83;;;4.23;;
4963;SDS011;2497;47.410;9.740;2023-04-06T00:18:46;8.33;;;4.70;;
4963;SDS011;2497;47.410;9.740;2023-04-06T00:21:14;6.53;;;3.73;;
4963;SDS011;2497;47.410;9.740;2023-04-06T00:23:41;10.07;;;4.40;;
4963;SDS011;2497;47.410;9.740;2023-04-06T00:26:08;7.30;;;4.90;;
4963;SDS011;2497;47.410;9.740;2023-04-06T00:28:36;10.17;;;4.57;;
4963;SDS011;2497;47.410;9.740;2023-04-06T00:31:03;5.13;;;3.80;;
4963;SDS011;2497;47.410;9.740;2023-04-06T00:33:32;6.40;;;4.27;;
4963;SDS011;2497;47.410;9.740;2023-04-06T00:35:59;6.30;;;4.40;;
4963;SDS011;2497;47.410;9.740;2023-04-06T00:38:26;8.90;;;4.10;;
4963;SDS011;2497;47.410;9.740;2023-04-06T00:40:53;5.13;;;3.57;;
4963;SDS011;2497;47.410;9.740;2023-04-06T00:43:21;8.83;;;4.03;;
4963;SDS011;2497;47.410;9.740;2023-04-06T00:45:49;10.73;;;5.03;;
4963;SDS011;2497;47.410;9.740;2023-04-06T00:48:16;10.33;;;4.33;;
4963;SDS011;2497;47.410;9.740;2023-04-06T00:50:45;12.43;;;5.30;;
4963;SDS011;2497;47.410;9.740;2023-04-06T00:53:12;9.00;;;4.60;;
4963;SDS011;2497;47.410;9.740;2023-04-06T00:55:39;8.07;;;4.57;;
4963;SDS011;2497;47.410;9.740;2023-04-06T00:58:07;6.30;;;4.40;;
4963;SDS011;2497;47.410;9.740;2023-04-06T01:00:34;7.20;;;4.60;;
4963;SDS011;2497;47.410;9.740;2023-04-06T01:03:02;8.13;;;4.27;;
4963;SDS011;2497;47.410;9.740;2023-04-06T01:05:32;9.10;;;3.90;;
4963;SDS011;2497;47.410;9.740;2023-04-06T01:08:01;8.73;;;4.10;;
4963;SDS011;2497;47.410;9.740;2023-04-06T01:10:28;8.50;;;4.70;;
4963;SDS011;2497;47.410;9.740;2023-04-06T01:12:56;7.63;;;4.77;;
4963;SDS011;2497;47.410;9.740;2023-04-06T01:15:24;6.17;;;3.93;;
4963;SDS011;2497;47.410;9.740;2023-04-06T01:17:52;8.70;;;4.37;;
4963;SDS011;2497;47.410;9.740;2023-04-06T01:20:19;8.73;;;4.87;;
4963;SDS011;2497;47.410;9.740;2023-04-06T01:22:48;8.03;;;4.57;;
4963;SDS011;2497;47.410;9.740;2023-04-06T01:25:15;9.40;;;4.80;;
4963;SDS011;2497;47.410;9.740;2023-04-06T01:27:42;6.30;;;4.57;;
4963;SDS011;2497;47.410;9.740;2023-04-06T01:30:10;9.00;;;4.10;;
4963;SDS011;2497;47.410;9.740;2023-04-06T01:32:37;10.40;;;5.50;;
4963;SDS011;2497;47.410;9.740;2023-04-06T01:35:05;12.57;;;5.47;;
4963;SDS011;2497;47.410;9.740;2023-04-06T01:37:32;10.27;;;5.87;;
4963;SDS011;2497;47.410;9.740;2023-04-06T01:40:01;10.20;;;5.10;;
4963;SDS011;2497;47.410;9.740;2023-04-06T01:42:28;10.23;;;5.93;;
4963;SDS011;2497;47.410;9.740;2023-04-06T01:44:56;9.73;;;4.87;;
4963;SDS011;2497;47.410;9.740;2023-04-06T01:47:24;13.57;;;6.23;;
4963;SDS011;2497;47.410;9.740;2023-04-06T01:49:51;12.97;;;6.77;;
4963;SDS011;2497;47.410;9.740;2023-04-06T01:52:18;10.47;;;5.27;;
4963;SDS011;2497;47.410;9.740;2023-04-06T01:54:46;15.60;;;5.30;;
4963;SDS011;2497;47.410;9.740;2023-04-06T01:57:14;8.43;;;5.03;;
4963;SDS011;2497;47.410;9.740;2023-04-06T01:59:41;9.57;;;6.13;;
4963;SDS011;2497;47.410;9.740;2023-04-06T02:02:09;8.60;;;5.57;;
4963;SDS011;2497;47.410;9.740;2023-04-06T02:04:37;6.50;;;4.47;;
4963;SDS011;2497;47.410;9.740;2023-04-06T02:07:05;17.87;;;4.77;;
4963;SDS011;2497;47.410;9.740;2023-04-06T02:09:32;6.90;;;4.60;;
4963;SDS011;2497;47.410;9.740;2023-04-06T02:11:59;7.60;;;4.40;;
4963;SDS011;2497;47.410;9.740;2023-04-06T02:14:28;10.53;;;5.70;;
4963;SDS011;2497;47.410;9.740;2023-04-06T02:16:55;12.03;;;5.40;;
4963;SDS011;2497;47.410;9.740;2023-04-06T02:19:22;13.30;;;5.37;;
4963;SDS011;2497;47.410;9.740;2023-04-06T02:21:49;7.50;;;4.73;;
4963;SDS011;2497;47.410;9.740;2023-04-06T02:24:17;8.83;;;4.53;;
4963;SDS011;2497;47.410;9.740;2023-04-06T02:26:44;17.00;;;4.80;;
4963;SDS011;2497;47.410;9.740;2023-04-06T02:29:11;9.50;;;4.70;;
4963;SDS011;2497;47.410;9.740;2023-04-06T02:31:39;6.60;;;4.70;;
4963;SDS011;2497;47.410;9.740;2023-04-06T02:34:07;6.83;;;4.10;;
4963;SDS011;2497;47.410;9.740;2023-04-06T02:36:37;8.50;;;5.13;;
4963;SDS011;2497;47.410;9.740;2023-04-06T02:39:04;14.60;;;5.13;;
4963;SDS011;2497;47.410;9.740;2023-04-06T02:41:31;8.63;;;4.37;;
4963;SDS011;2497;47.410;9.740;2023-04-06T02:43:58;7.23;;;4.43;;
4963;SDS011;2497;47.410;9.740;2023-04-06T02:46:26;8.17;;;4.87;;
4963;SDS011;2497;47.410;9.740;2023-04-06T02:48:54;9.63;;;5.97;;
4963;SDS011;2497;47.410;9.740;2023-04-06T02:51:21;8.13;;;5.17;;
4963;SDS011;2497;47.410;9.740;2023-04-06T02:53:48;7.07;;;4.67;;
4963;SDS011;2497;47.410;9.740;2023-04-06T02:56:16;11.80;;;4.90;;
4963;SDS011;2497;47.410;9.740;2023-04-06T02:58:43;9.23;;;5.30;;
4963;SDS011;2497;47.410;9.740;2023-04-06T03:01:10;8.80;;;5.27;;
4963;SDS011;2497;47.410;9.740;2023-04-06T03:03:37;9.43;;;6.13;;
4963;SDS011;2497;47.410;9.740;2023-04-06T03:06:06;7.67;;;4.80;;
4963;SDS011;2497;47.410;9.740;2023-04-06T03:08:33;7.50;;;4.60;;
4963;SDS011;2497;47.410;9.740;2023-04-06T03:11:00;9.77;;;5.33;;
4963;SDS011;2497;47.410;9.740;2023-04-06T03:13:28;10.97;;;6.27;;
4963;SDS011;2497;47.410;9.740;2023-04-06T03:15:55;13.33;;;6.30;;
4963;SDS011;2497;47.410;9.740;2023-04-06T03:18:23;7.00;;;4.87;;
4963;SDS011;2497;47.410;9.740;2023-04-06T03:20:51;14.77;;;5.70;;
4963;SDS011;2497;47.410;9.740;2023-04-06T03:23:21;11.60;;;5.40;;
4963;SDS011;2497;47.410;9.740;2023-04-06T03:25:48;13.53;;;5.57;;
4963;SDS011;2497;47.410;9.740;2023-04-06T03:28:15;10.30;;;5.83;;
4963;SDS011;2497;47.410;9.740;2023-04-06T03:30:42;18.00;;;5.43;;
4963;SDS011;2497;47.410;9.740;2023-04-06T03:33:10;11.70;;;5.70;;
4963;SDS011;2497;47.410;9.740;2023-04-06T03:35:37;10.13;;;5.63;;
4963;SDS011;2497;47.410;9.740;2023-04-06T03:38:05;12.20;;;5.90;;
4963;SDS011;2497;47.410;9.740;2023-04-06T03:40:33;11.13;;;4.80;;
4963;SDS011;2497;47.410;9.740;2023-04-06T03:43:01;10.30;;;5.10;;
4963;SDS011;2497;47.410;9.740;2023-04-06T03:45:28;11.67;;;5.70;;
4963;SDS011;2497;47.410;9.740;2023-04-06T03:47:55;9.95;;;5.00;;
4963;SDS011;2497;47.410;9.740;2023-04-06T03:50:22;8.90;;;4.67;;
4963;SDS011;2497;47.410;9.740;2023-04-06T03:52:50;8.27;;;4.97;;
4963;SDS011;2497;47.410;9.740;2023-04-06T03:55:17;16.03;;;5.60;;
4963;SDS011;2497;47.410;9.740;2023-04-06T03:57:46;9.33;;;4.77;;
4963;SDS011;2497;47.410;9.740;2023-04-06T04:00:13;14.20;;;5.03;;
4963;SDS011;2497;47.410;9.740;2023-04-06T04:02:41;13.20;;;5.67;;
4963;SDS011;2497;47.410;9.740;2023-04-06T04:05:08;11.90;;;5.80;;
4963;SDS011;2497;47.410;9.740;2023-04-06T04:07:35;9.95;;;5.93;;
4963;SDS011;2497;47.410;9.740;2023-04-06T04:10:03;10.80;;;5.60;;
4963;SDS011;2497;47.410;9.740;2023-04-06T04:12:30;8.40;;;5.70;;
4963;SDS011;2497;47.410;9.740;2023-04-06T04:14:59;9.35;;;5.78;;
4963;SDS011;2497;47.410;9.740;2023-04-06T04:17:28;17.30;;;5.75;;
4963;SDS011;2497;47.410;9.740;2023-04-06T04:19:55;12.87;;;5.80;;
4963;SDS011;2497;47.410;9.740;2023-04-06T04:22:22;9.50;;;5.80;;
4963;SDS011;2497;47.410;9.740;2023-04-06T04:24:50;9.95;;;6.07;;
4963;SDS011;2497;47.410;9.740;2023-04-06T04:27:17;15.15;;;6.72;;
4963;SDS011;2497;47.410;9.740;2023-04-06T04:29:45;11.27;;;5.47;;
4963;SDS011;2497;47.410;9.740;2023-04-06T04:32:14;12.30;;;5.60;;
4963;SDS011;2497;47.410;9.740;2023-04-06T04:34:41;10.67;;;5.43;;
4963;SDS011;2497;47.410;9.740;2023-04-06T04:37:08;10.70;;;5.57;;
4963;SDS011;2497;47.410;9.740;2023-04-06T04:39:36;11.23;;;5.88;;
4963;SDS011;2497;47.410;9.740;2023-04-06T04:42:03;9.15;;;5.30;;
4963;SDS011;2497;47.410;9.740;2023-04-06T04:44:30;9.05;;;5.18;;
4963;SDS011;2497;47.410;9.740;2023-04-06T04:46:57;10.55;;;6.50;;
4963;SDS011;2497;47.410;9.740;2023-04-06T04:49:26;12.33;;;6.30;;
4963;SDS011;2497;47.410;9.740;2023-04-06T04:51:53;17.50;;;7.35;;
4963;SDS011;2497;47.410;9.740;2023-04-06T04:54:20;19.23;;;7.30;;
4963;SDS011;2497;47.410;9.740;2023-04-06T04:56:49;14.52;;;6.68;;
4963;SDS011;2497;47.410;9.740;2023-04-06T04:59:19;12.18;;;5.80;;
4963;SDS011;2497;47.410;9.740;2023-04-06T05:01:51;9.20;;;6.07;;
4963;SDS011;2497;47.410;9.740;2023-04-06T05:04:27;12.50;;;5.88;;
4963;SDS011;2497;47.410;9.740;2023-04-06T05:07:05;10.15;;;5.40;;
4963;SDS011;2497;47.410;9.740;2023-04-06T05:09:43;8.10;;;5.20;;
4963;SDS011;2497;47.410;9.740;2023-04-06T05:12:12;17.13;;;5.80;;
4963;SDS011;2497;47.410;9.740;2023-04-06T05:14:39;23.45;;;9.10;;
4963;SDS011;2497;47.410;9.740;2023-04-06T05:17:06;16.55;;;9.40;;
4963;SDS011;2497;47.410;9.740;2023-04-06T05:19:36;21.90;;;8.10;;
4963;SDS011;2497;47.410;9.740;2023-04-06T05:22:03;15.45;;;9.18;;
4963;SDS011;2497;47.410;9.740;2023-04-06T05:24:30;13.47;;;6.07;;
4963;SDS011;2497;47.410;9.740;2023-04-06T05:26:58;10.13;;;6.70;;
4963;SDS011;2497;47.410;9.740;2023-04-06T05:29:25;12.20;;;7.65;;
4963;SDS011;2497;47.410;9.740;2023-04-06T05:31:57;12.40;;;7.72;;
4963;SDS011;2497;47.410;9.740;2023-04-06T05:34:25;26.53;;;7.10;;
4963;SDS011;2497;47.410;9.740;2023-04-06T05:36:54;11.43;;;6.03;;
4963;SDS011;2497;47.410;9.740;2023-04-06T05:39:21;23.40;;;6.95;;
4963;SDS011;2497;47.410;9.740;2023-04-06T05:41:49;26.83;;;7.32;;
4963;SDS011;2497;47.410;9.740;2023-04-06T05:44:16;15.15;;;7.15;;
4963;SDS011;2497;47.410;9.740;2023-04-06T05:46:43;16.55;;;5.90;;
4963;SDS011;2497;47.410;9.740;2023-04-06T05:49:10;9.17;;;5.27;;
4963;SDS011;2497;47.410;9.740;2023-04-06T05:51:37;23.70;;;6.72;;
4963;SDS011;2497;47.410;9.740;2023-04-06T05:54:06;16.73;;;5.88;;
4963;SDS011;2497;47.410;9.740;2023-04-06T05:56:33;14.30;;;6.93;;
4963;SDS011;2497;47.410;9.740;2023-04-06T05:59:02;13.87;;;6.67;;
4963;SDS011;2497;47.410;9.740;2023-04-06T06:01:32;21.10;;;7.22;;
4963;SDS011;2497;47.410;9.740;2023-04-06T06:04:00;13.40;;;6.65;;
4963;SDS011;2497;47.410;9.740;2023-04-06T06:06:28;13.67;;;6.40;;
4963;SDS011;2497;47.410;9.740;2023-04-06T06:08:57;16.70;;;7.70;;
4963;SDS011;2497;47.410;9.740;2023-04-06T06:11:27;12.40;;;6.30;;
4963;SDS011;2497;47.410;9.740;2023-04-06T06:13:54;11.57;;;6.47;;
4963;SDS011;2497;47.410;9.740;2023-04-06T06:16:22;11.67;;;6.10;;
4963;SDS011;2497;47.410;9.740;2023-04-06T06:18:49;14.20;;;6.53;;
4963;SDS011;2497;47.410;9.740;2023-04-06T06:21:16;11.30;;;5.63;;
4963;SDS011;2497;47.410;9.740;2023-04-06T06:23:44;12.63;;;6.03;;
4963;SDS011;2497;47.410;9.740;2023-04-06T06:26:13;9.93;;;5.97;;
4963;SDS011;2497;47.410;9.740;2023-04-06T06:28:42;10.40;;;5.87;;
4963;SDS011;2497;47.410;9.740;2023-04-06T06:31:09;9.20;;;6.07;;
4963;SDS011;2497;47.410;9.740;2023-04-06T06:33:36;12.10;;;6.47;;
4963;SDS011;2497;47.410;9.740;2023-04-06T06:36:04;12.43;;;7.20;;
4963;SDS011;2497;47.410;9.740;2023-04-06T06:38:31;15.43;;;8.30;;
4963;SDS011;2497;47.410;9.740;2023-04-06T06:40:58;17.87;;;8.80;;
4963;SDS011;2497;47.410;9.740;2023-04-06T06:43:26;13.67;;;6.80;;
4963;SDS011;2497;47.410;9.740;2023-04-06T06:45:54;10.27;;;6.47;;
4963;SDS011;2497;47.410;9.740;2023-04-06T06:48:21;13.10;;;7.77;;
4963;SDS011;2497;47.410;9.740;2023-04-06T06:50:48;15.73;;;7.40;;
4963;SDS011;2497;47.410;9.740;2023-04-06T06:53:16;15.13;;;6.63;;
4963;SDS011;2497;47.410;9.740;2023-04-06T06:55:44;10.53;;;6.20;;
4963;SDS011;2497;47.410;9.740;2023-04-06T06:58:11;13.20;;;6.57;;
4963;SDS011;2497;47.410;9.740;2023-04-06T07:00:38;20.33;;;7.47;;
4963;SDS011;2497;47.410;9.740;2023-04-06T07:03:07;13.20;;;6.40;;
4963;SDS011;2497;47.410;9.740;2023-04-06T07:05:34;13.97;;;7.20;;
4963;SDS011;2497;47.410;9.740;2023-04-06T07:08:01;13.63;;;6.47;;
4963;SDS011;2497;47.410;9.740;2023-04-06T07:10:28;15.50;;;7.37;;
4963;SDS011;2497;47.410;9.740;2023-04-06T07:12:57;12.40;;;7.23;;
4963;SDS011;2497;47.410;9.740;2023-04-06T07:15:24;15.33;;;8.17;;
4963;SDS011;2497;47.410;9.740;2023-04-06T07:17:51;16.60;;;7.80;;
4963;SDS011;2497;47.410;9.740;2023-04-06T07:20:21;13.93;;;7.10;;
4963;SDS011;2497;47.410;9.740;2023-04-06T07:22:48;19.40;;;7.67;;
4963;SDS011;2497;47.410;9.740;2023-04-06T07:25:15;18.80;;;7.73;;
4963;SDS011;2497;47.410;9.740;2023-04-06T07:27:42;15.23;;;7.67;;
4963;SDS011;2497;47.410;9.740;2023-04-06T07:30:10;17.23;;;6.60;;
4963;SDS011;2497;47.410;9.740;2023-04-06T07:32:37;15.57;;;8.30;;
4963;SDS011;2497;47.410;9.740;2023-04-06T07:35:05;17.70;;;7.40;;
4963;SDS011;2497;47.410;9.740;2023-04-06T07:37:36;14.73;;;7.00;;
4963;SDS011;2497;47.410;9.740;2023-04-06T07:40:03;19.13;;;8.10;;
4963;SDS011;2497;47.410;9.740;2023-04-06T07:42:31;14.53;;;7.70;;
4963;SDS011;2497;47.410;9.740;2023-04-06T07:44:59;14.23;;;7.60;;
4963;SDS011;2497;47.410;9.740;2023-04-06T07:47:26;12.77;;;8.10;;
4963;SDS011;2497;47.410;9.740;2023-04-06T07:49:54;11.63;;;6.93;;
4963;SDS011;2497;47.410;9.740;2023-04-06T07:52:22;15.70;;;7.47;;
4963;SDS011;2497;47.410;9.740;2023-04-06T07:54:51;11.30;;;7.30;;
4963;SDS011;2497;47.410;9.740;2023-04-06T07:57:18;15.23;;;7.80;;
4963;SDS011;2497;47.410;9.740;2023-04-06T07:59:48;13.27;;;6.43;;
4963;SDS011;2497;47.410;9.740;2023-04-06T08:02:16;12.90;;;7.47;;
4963;SDS011;2497;47.410;9.740;2023-04-06T08:04:43;16.40;;;7.87;;
4963;SDS011;2497;47.410;9.740;2023-04-06T08:07:11;12.23;;;7.43;;
4963;SDS011;2497;47.410;9.740;2023-04-06T08:09:38;15.20;;;6.93;;
4963;SDS011;2497;47.410;9.740;2023-04-06T08:12:07;10.87;;;6.27;;
4963;SDS011;2497;47.410;9.740;2023-04-06T08:14:35;12.37;;;6.90;;
4963;SDS011;2497;47.410;9.740;2023-04-06T08:17:02;12.03;;;6.80;;
4963;SDS011;2497;47.410;9.740;2023-04-06T08:19:30;11.87;;;6.90;;
4963;SDS011;2497;47.410;9.740;2023-04-06T08:21:57;13.50;;;6.90;;
4963;SDS011;2497;47.410;9.740;2023-04-06T08:24:24;14.20;;;7.63;;
4963;SDS011;2497;47.410;9.740;2023-04-06T08:26:53;15.60;;;7.30;;
4963;SDS011;2497;47.410;9.740;2023-04-06T08:29:21;16.00;;;8.60;;
4963;SDS011;2497;47.410;9.740;2023-04-06T08:31:48;16.53;;;8.57;;
4963;SDS011;2497;47.410;9.740;2023-04-06T08:34:16;16.70;;;7.97;;
4963;SDS011;2497;47.410;9.740;2023-04-06T08:36:43;15.53;;;7.90;;
4963;SDS011;2497;47.410;9.740;2023-04-06T08:39:10;14.77;;;8.13;;
4963;SDS011;2497;47.410;9.740;2023-04-06T08:41:37;12.53;;;7.10;;
4963;SDS011;2497;47.410;9.740;2023-04-06T08:44:07;14.53;;;7.90;;
4963;SDS011;2497;47.410;9.740;2023-04-06T08:46:41;15.47;;;7.60;;
4963;SDS011;2497;47.410;9.740;2023-04-06T08:49:08;15.57;;;8.60;;
4963;SDS011;2497;47.410;9.740;2023-04-06T08:51:36;14.23;;;8.10;;
4963;SDS011;2497;47.410;9.740;2023-04-06T08:54:04;15.10;;;7.70;;
4963;SDS011;2497;47.410;9.740;2023-04-06T08:56:31;15.33;;;6.77;;
4963;SDS011;2497;47.410;9.740;2023-04-06T08:59:00;12.57;;;6.63;;
4963;SDS011;2497;47.410;9.740;2023-04-06T09:01:29;12.03;;;7.10;;
4963;SDS011;2497;47.410;9.740;2023-04-06T09:04:00;11.77;;;7.20;;
4963;SDS011;2497;47.410;9.740;2023-04-06T09:06:30;13.80;;;7.77;;
4963;SDS011;2497;47.410;9.740;2023-04-06T09:08:58;12.50;;;6.87;;
4963;SDS011;2497;47.410;9.740;2023-04-06T09:11:26;11.60;;;7.67;;
4963;SDS011;2497;47.410;9.740;2023-04-06T09:13:55;14.67;;;7.17;;
4963;SDS011;2497;47.410;9.740;2023-04-06T09:16:22;14.07;;;7.50;;
4963;SDS011;2497;47.410;9.740;2023-04-06T09:18:51;13.53;;;7.17;;
4963;SDS011;2497;47.410;9.740;2023-04-06T09:21:19;14.90;;;7.30;;
4963;SDS011;2497;47.410;9.740;2023-04-06T09:23:46;11.10;;;6.63;;
4963;SDS011;2497;47.410;9.740;2023-04-06T09:26:15;12.57;;;7.20;;
4963;SDS011;2497;47.410;9.740;2023-04-06T09:28:48;8.33;;;6.30;;
4963;SDS011;2497;47.410;9.740;2023-04-06T09:31:21;14.33;;;7.10;;
4963;SDS011;2497;47.410;9.740;2023-04-06T09:33:50;13.93;;;6.77;;
4963;SDS011;2497;47.410;9.740;2023-04-06T09:36:28;11.50;;;6.60;;
4963;SDS011;2497;47.410;9.740;2023-04-06T09:38:57;10.40;;;6.60;;
4963;SDS011;2497;47.410;9.740;2023-04-06T09:41:27;11.67;;;7.17;;
4963;SDS011;2497;47.410;9.740;2023-04-06T09:46:52;10.03;;;6.47;;
4963;SDS011;2497;47.410;9.740;2023-04-06T09:49:20;13.20;;;6.37;;
4963;SDS011;2497;47.410;9.740;2023-04-06T09:51:55;10.80;;;6.90;;
4963;SDS011;2497;47.410;9.740;2023-04-06T09:54:28;11.10;;;6.73;;
4963;SDS011;2497;47.410;9.740;2023-04-06T09:56:58;13.17;;;5.87;;
4963;SDS011;2497;47.410;9.740;2023-04-06T09:59:32;9.83;;;6.33;;
4963;SDS011;2497;47.410;9.740;2023-04-06T10:02:05;13.53;;;6.40;;
4963;SDS011;2497;47.410;9.740;2023-04-06T10:04:39;11.00;;;6.87;;
4963;SDS011;2497;47.410;9.740;2023-04-06T10:07:11;13.97;;;6.20;;
4963;SDS011;2497;47.410;9.740;2023-04-06T10:09:40;10.40;;;6.10;;
4963;SDS011;2497;47.410;9.740;2023-04-06T10:12:11;9.87;;;5.63;;
4963;SDS011;2497;47.410;9.740;2023-04-06T10:14:42;13.50;;;6.40;;
4963;SDS011;2497;47.410;9.740;2023-04-06T10:17:10;12.57;;;6.53;;
4963;SDS011;2497;47.410;9.740;2023-04-06T10:19:39;10.73;;;5.30;;
4963;SDS011;2497;47.410;9.740;2023-04-06T10:22:12;10.93;;;6.30;;
4963;SDS011;2497;47.410;9.740;2023-04-06T10:24:47;19.00;;;6.70;;
4963;SDS011;2497;47.410;9.740;2023-04-06T10:27:14;8.43;;;5.50;;
4963;SDS011;2497;47.410;9.740;2023-04-06T10:29:42;9.77;;;5.90;;
4963;SDS011;2497;47.410;9.740;2023-04-06T10:32:11;8.83;;;5.33;;
4963;SDS011;2497;47.410;9.740;2023-04-06T10:34:38;9.20;;;6.07;;
4963;SDS011;2497;47.410;9.740;2023-04-06T10:37:14;10.73;;;6.40;;
4963;SDS011;2497;47.410;9.740;2023-04-06T10:39:45;10.07;;;5.53;;
4963;SDS011;2497;47.410;9.740;2023-04-06T10:42:13;10.57;;;5.53;;
4963;SDS011;2497;47.410;9.740;2023-04-06T10:44:42;9.40;;;5.80;;
4963;SDS011;2497;47.410;9.740;2023-04-06T10:47:15;9.50;;;6.23;;
4963;SDS011;2497;47.410;9.740;2023-04-06T10:49:43;10.83;;;6.97;;
4963;SDS011;2497;47.410;9.740;2023-04-06T10:52:10;16.03;;;6.60;;
4963;SDS011;2497;47.410;9.740;2023-04-06T10:54:40;15.83;;;8.80;;
4963;SDS011;2497;47.410;9.740;2023-04-06T10:57:09;13.37;;;7.70;;
4963;SDS011;2497;47.410;9.740;2023-04-06T10:59:36;16.23;;;7.30;;
4963;SDS011;2497;47.410;9.740;2023-04-06T11:02:03;13.93;;;7.70;;
4963;SDS011;2497;47.410;9.740;2023-04-06T11:04:31;13.80;;;7.00;;
4963;SDS011;2497;47.410;9.740;2023-04-06T11:06:58;13.13;;;7.53;;
4963;SDS011;2497;47.410;9.740;2023-04-06T11:09:25;15.23;;;8.00;;
4963;SDS011;2497;47.410;9.740;2023-04-06T11:11:55;15.43;;;8.10;;
4963;SDS011;2497;47.410;9.740;2023-04-06T11:14:22;10.07;;;7.03;;
4963;SDS011;2497;47.410;9.740;2023-04-06T11:19:33;9.80;;;6.60;;
4963;SDS011;2497;47.410;9.740;2023-04-06T11:22:06;13.50;;;7.47;;
4963;SDS011;2497;47.410;9.740;2023-04-06T11:24:34;9.17;;;6.47;;
4963;SDS011;2497;47.410;9.740;2023-04-06T11:27:02;10.83;;;6.80;;
4963;SDS011;2497;47.410;9.740;2023-04-06T11:29:30;12.40;;;6.70;;
4963;SDS011;2497;47.410;9.740;2023-04-06T11:31:59;14.40;;;6.07;;
4963;SDS011;2497;47.410;9.740;2023-04-06T11:34:28;10.57;;;7.10;;
4963;SDS011;2497;47.410;9.740;2023-04-06T11:36:59;9.80;;;6.40;;
4963;SDS011;2497;47.410;9.740;2023-04-06T11:39:31;11.00;;;6.77;;
4963;SDS011;2497;47.410;9.740;2023-04-06T11:42:00;11.57;;;6.20;;
4963;SDS011;2497;47.410;9.740;2023-04-06T11:44:31;9.50;;;6.30;;
4963;SDS011;2497;47.410;9.740;2023-04-06T11:47:00;9.67;;;6.00;;
4963;SDS011;2497;47.410;9.740;2023-04-06T11:49:28;9.93;;;5.90;;
4963;SDS011;2497;47.410;9.740;2023-04-06T11:51:55;9.57;;;5.93;;
4963;SDS011;2497;47.410;9.740;2023-04-06T11:54:31;14.77;;;6.97;;
4963;SDS011;2497;47.410;9.740;2023-04-06T11:56:59;13.30;;;5.80;;
4963;SDS011;2497;47.410;9.740;2023-04-06T11:59:26;12.90;;;6.70;;
4963;SDS011;2497;47.410;9.740;2023-04-06T12:01:57;9.53;;;5.47;;
4963;SDS011;2497;47.410;9.740;2023-04-06T12:04:24;19.73;;;6.40;;
4963;SDS011;2497;47.410;9.740;2023-04-06T12:06:52;13.00;;;5.40;;
4963;SDS011;2497;47.410;9.740;2023-04-06T12:09:19;10.17;;;5.90;;
4963;SDS011;2497;47.410;9.740;2023-04-06T12:11:46;8.30;;;5.23;;
4963;SDS011;2497;47.410;9.740;2023-04-06T12:14:14;7.90;;;4.90;;
4963;SDS011;2497;47.410;9.740;2023-04-06T12:16:42;8.80;;;5.80;;
4963;SDS011;2497;47.410;9.740;2023-04-06T12:19:10;11.00;;;6.10;;
4963;SDS011;2497;47.410;9.740;2023-04-06T12:21:37;10.47;;;6.00;;
4963;SDS011;2497;47.410;9.740;2023-04-06T12:24:05;11.00;;;5.73;;
4963;SDS011;2497;47.410;9.740;2023-04-06T12:26:33;9.60;;;5.33;;
4963;SDS011;2497;47.410;9.740;2023-04-06T12:29:01;11.67;;;5.30;;
4963;SDS011;2497;47.410;9.740;2023-04-06T12:31:32;11.87;;;4.90;;
4963;SDS011;2497;47.410;9.740;2023-04-06T12:34:02;11.80;;;5.30;;
4963;SDS011;2497;47.410;9.740;2023-04-06T12:36:30;11.27;;;5.47;;
4963;SDS011;2497;47.410;9.740;2023-04-06T12:38:57;9.47;;;5.57;;
4963;SDS011;2497;47.410;9.740;2023-04-06T12:41:38;7.40;;;4.73;;
4963;SDS011;2497;47.410;9.740;2023-04-06T12:44:06;9.33;;;5.37;;
4963;SDS011;2497;47.410;9.740;2023-04-06T12:46:33;9.40;;;5.93;;
4963;SDS011;2497;47.410;9.740;2023-04-06T12:49:02;8.60;;;5.20;;
4963;SDS011;2497;47.410;9.740;2023-04-06T12:51:30;7.23;;;4.50;;
4963;SDS011;2497;47.410;9.740;2023-04-06T12:53:57;9.13;;;5.30;;
4963;SDS011;2497;47.410;9.740;2023-04-06T12:56:26;8.90;;;5.40;;
4963;SDS011;2497;47.410;9.740;2023-04-06T12:58:53;10.13;;;6.10;;
4963;SDS011;2497;47.410;9.740;2023-04-06T13:01:22;8.60;;;5.57;;
4963;SDS011;2497;47.410;9.740;2023-04-06T13:03:50;11.70;;;6.00;;
4963;SDS011;2497;47.410;9.740;2023-04-06T13:06:18;15.87;;;6.40;;
4963;SDS011;2497;47.410;9.740;2023-04-06T13:08:48;9.93;;;5.77;;
4963;SDS011;2497;47.410;9.740;2023-04-06T13:11:16;9.13;;;5.53;;
4963;SDS011;2497;47.410;9.740;2023-04-06T13:13:45;8.53;;;5.50;;
4963;SDS011;2497;47.410;9.740;2023-04-06T13:16:12;11.90;;;7.10;;
4963;SDS011;2497;47.410;9.740;2023-04-06T13:18:40;10.30;;;5.50;;
4963;SDS011;2497;47.410;9.740;2023-04-06T13:21:07;9.73;;;6.00;;
4963;SDS011;2497;47.410;9.740;2023-04-06T13:23:36;11.93;;;6.90;;
4963;SDS011;2497;47.410;9.740;2023-04-06T13:26:03;14.33;;;6.93;;
4963;SDS011;2497;47.410;9.740;2023-04-06T13:28:32;10.97;;;6.30;;
4963;SDS011;2497;47.410;9.740;2023-04-06T13:31:04;8.10;;;5.10;;
4963;SDS011;2497;47.410;9.740;2023-04-06T13:33:37;10.10;;;6.93;;
4963;SDS011;2497;47.410;9.740;2023-04-06T13:36:13;10.47;;;5.73;;
4963;SDS011;2497;47.410;9.740;2023-04-06T13:39:06;10.63;;;5.80;;
4963;SDS011;2497;47.410;9.740;2023-04-06T13:41:39;11.87;;;6.87;;
4963;SDS011;2497;47.410;9.740;2023-04-06T13:44:06;11.73;;;5.60;;
4963;SDS011;2497;47.410;9.740;2023-04-06T13:46:35;11.93;;;7.30;;
4963;SDS011;2497;47.410;9.740;2023-04-06T13:49:02;15.73;;;6.53;;
4963;SDS011;2497;47.410;9.740;2023-04-06T13:51:30;10.20;;;6.43;;
4963;SDS011;2497;47.410;9.740;2023-04-06T13:54:01;10.23;;;6.33;;
4963;SDS011;2497;47.410;9.740;2023-04-06T13:56:28;13.80;;;6.70;;
4963;SDS011;2497;47.410;9.740;2023-04-06T13:58:56;10.60;;;6.27;;
4963;SDS011;2497;47.410;9.740;2023-04-06T14:01:23;13.67;;;7.87;;
4963;SDS011;2497;47.410;9.740;2023-04-06T14:03:51;12.20;;;5.87;;
4963;SDS011;2497;47.410;9.740;2023-04-06T14:06:19;12.80;;;6.67;;
4963;SDS011;2497;47.410;9.740;2023-04-06T14:08:46;12.33;;;8.00;;
4963;SDS011;2497;47.410;9.740;2023-04-06T14:11:14;13.53;;;7.07;;
4963;SDS011;2497;47.410;9.740;2023-04-06T14:13:41;12.57;;;7.67;;
4963;SDS011;2497;47.410;9.740;2023-04-06T14:16:09;12.80;;;7.17;;
4963;SDS011;2497;47.410;9.740;2023-04-06T14:18:36;12.20;;;7.00;;
4963;SDS011;2497;47.410;9.740;2023-04-06T14:21:04;11.83;;;7.20;;
4963;SDS011;2497;47.410;9.740;2023-04-06T14:23:31;11.73;;;7.70;;
4963;SDS011;2497;47.410;9.740;2023-04-06T14:26:00;13.23;;;8.33;;
4963;SDS011;2497;47.410;9.740;2023-04-06T14:28:30;12.83;;;7.83;;
4963;SDS011;2497;47.410;9.740;2023-04-06T14:30:58;13.60;;;7.80;;
4963;SDS011;2497;47.410;9.740;2023-04-06T14:33:27;13.63;;;7.87;;
4963;SDS011;2497;47.410;9.740;2023-04-06T14:35:56;17.07;;;8.00;;
4963;SDS011;2497;47.410;9.740;2023-04-06T14:38:23;13.93;;;8.53;;
4963;SDS011;2497;47.410;9.740;2023-04-06T14:40:50;10.27;;;6.13;;
4963;SDS011;2497;47.410;9.740;2023-04-06T14:43:17;13.40;;;8.33;;
4963;SDS011;2497;47.410;9.740;2023-04-06T14:45:46;13.23;;;7.50;;
4963;SDS011;2497;47.410;9.740;2023-04-06T14:48:13;15.00;;;8.07;;
4963;SDS011;2497;47.410;9.740;2023-04-06T14:50:51;13.10;;;7.93;;
4963;SDS011;2497;47.410;9.740;2023-04-06T14:53:18;10.70;;;6.47;;
4963;SDS011;2497;47.410;9.740;2023-04-06T14:55:45;18.67;;;7.77;;
4963;SDS011;2497;47.410;9.740;2023-04-06T14:58:12;13.20;;;7.73;;
4963;SDS011;2497;47.410;9.740;2023-04-06T15:00:39;18.60;;;9.17;;
4963;SDS011;2497;47.410;9.740;2023-04-06T15:03:08;14.43;;;7.67;;
4963;SDS011;2497;47.410;9.740;2023-04-06T15:05:35;19.27;;;8.30;;
4963;SDS011;2497;47.410;9.740;2023-04-06T15:08:02;11.83;;;7.40;;
4963;SDS011;2497;47.410;9.740;2023-04-06T15:10:30;12.90;;;6.50;;
4963;SDS011;2497;47.410;9.740;2023-04-06T15:12:58;14.43;;;7.10;;
4963;SDS011;2497;47.410;9.740;2023-04-06T15:15:26;10.97;;;5.23;;
4963;SDS011;2497;47.410;9.740;2023-04-06T15:18:10;15.13;;;7.20;;